sensor_id;sensor_type;location;lat;lon;timestamp;P1;durP1;ratioP1;P2;durP2;ratioP2
69912;SDS011;57198;52.082;5.108;2024-01-30T00:01:57;15.13;;;11.25;;
69912;SDS011;57198;52.082;5.108;2024-01-30T00:04:24;12.93;;;10.15;;
69912;SDS011;57198;52.082;5.108;2024-01-30T00:06:52;13.40;;;10.13;;
69912;SDS011;57198;52.082;5.108;2024-01-30T00:09:19;16.58;;;11.45;;
69912;SDS011;57198;52.082;5.108;2024-01-30T00:11:47;16.83;;;10.50;;
69912;SDS011;57198;52.082;5.108;2024-01-30T00:14:14;14.85;;;11.40;;
69912;SDS011;57198;52.082;5.108;2024-01-30T00:16:42;14.52;;;11.10;;
69912;SDS011;57198;52.082;5.108;2024-01-30T00:19:09;15.07;;;10.63;;
69912;SDS011;57198;52.082;5.108;2024-01-30T00:21:36;14.70;;;10.23;;
69912;SDS011;57198;52.082;5.108;2024-01-30T00:24:04;16.10;;;10.32;;
69912;SDS011;57198;52.082;5.108;2024-01-30T00:26:31;13.55;;;9.95;;
69912;SDS011;57198;52.082;5.108;2024-01-30T00:28:59;14.48;;;9.77;;
69912;SDS011;57198;52.082;5.108;2024-01-30T00:31:26;15.32;;;10.38;;
69912;SDS011;57198;52.082;5.108;2024-01-30T00:33:54;12.35;;;10.27;;
69912;SDS011;57198;52.082;5.108;2024-01-30T00:36:21;11.35;;;10.00;;
69912;SDS011;57198;52.082;5.108;2024-01-30T00:38:49;11.55;;;10.10;;
69912;SDS011;57198;52.082;5.108;2024-01-30T00:41:19;13.90;;;10.60;;
69912;SDS011;57198;52.082;5.108;2024-01-30T00:43:46;12.48;;;9.45;;
69912;SDS011;57198;52.082;5.108;2024-01-30T00:46:14;11.70;;;9.90;;
69912;SDS011;57198;52.082;5.108;2024-01-30T00:48:41;14.00;;;10.18;;
69912;SDS011;57198;52.082;5.108;2024-01-30T00:51:08;13.60;;;9.85;;
69912;SDS011;57198;52.082;5.108;2024-01-30T00:53:36;14.07;;;10.07;;
69912;SDS011;57198;52.082;5.108;2024-01-30T00:56:03;14.95;;;10.35;;
69912;SDS011;57198;52.082;5.108;2024-01-30T00:58:31;12.93;;;9.93;;
69912;SDS011;57198;52.082;5.108;2024-01-30T01:00:58;14.27;;;9.23;;
69912;SDS011;57198;52.082;5.108;2024-01-30T01:03:26;14.40;;;10.40;;
69912;SDS011;57198;52.082;5.108;2024-01-30T01:05:53;14.77;;;10.18;;
69912;SDS011;57198;52.082;5.108;2024-01-30T01:08:21;11.13;;;9.30;;
69912;SDS011;57198;52.082;5.108;2024-01-30T01:10:48;12.00;;;9.38;;
69912;SDS011;57198;52.082;5.108;2024-01-30T01:13:15;13.35;;;10.25;;
69912;SDS011;57198;52.082;5.108;2024-01-30T01:15:43;11.70;;;9.57;;
69912;SDS011;57198;52.082;5.108;2024-01-30T01:18:10;17.55;;;10.50;;
69912;SDS011;57198;52.082;5.108;2024-01-30T01:20:38;14.48;;;9.18;;
69912;SDS011;57198;52.082;5.108;2024-01-30T01:23:05;13.60;;;9.85;;
69912;SDS011;57198;52.082;5.108;2024-01-30T01:25:32;13.35;;;9.98;;
69912;SDS011;57198;52.082;5.108;2024-01-30T01:28:00;15.48;;;10.05;;
69912;SDS011;57198;52.082;5.108;2024-01-30T01:30:28;12.88;;;8.77;;
69912;SDS011;57198;52.082;5.108;2024-01-30T01:32:55;13.73;;;9.48;;
69912;SDS011;57198;52.082;5.108;2024-01-30T01:35:24;12.02;;;9.32;;
69912;SDS011;57198;52.082;5.108;2024-01-30T01:37:52;11.63;;;9.50;;
69912;SDS011;57198;52.082;5.108;2024-01-30T01:40:26;11.45;;;8.95;;
69912;SDS011;57198;52.082;5.108;2024-01-30T01:42:55;11.88;;;8.25;;
69912;SDS011;57198;52.082;5.108;2024-01-30T01:45:22;12.25;;;9.57;;
69912;SDS011;57198;52.082;5.108;2024-01-30T01:47:50;12.10;;;10.15;;
69912;SDS011;57198;52.082;5.108;2024-01-30T01:50:18;11.80;;;8.82;;
69912;SDS011;57198;52.082;5.108;2024-01-30T01:52:47;11.60;;;8.65;;
69912;SDS011;57198;52.082;5.108;2024-01-30T01:55:15;9.93;;;8.00;;
69912;SDS011;57198;52.082;5.108;2024-01-30T01:57:45;11.90;;;9.80;;
69912;SDS011;57198;52.082;5.108;2024-01-30T02:00:13;15.57;;;9.57;;
69912;SDS011;57198;52.082;5.108;2024-01-30T02:02:41;11.18;;;9.30;;
69912;SDS011;57198;52.082;5.108;2024-01-30T02:05:08;10.80;;;8.93;;
69912;SDS011;57198;52.082;5.108;2024-01-30T02:07:35;12.50;;;9.95;;
69912;SDS011;57198;52.082;5.108;2024-01-30T02:10:03;13.27;;;9.88;;
69912;SDS011;57198;52.082;5.108;2024-01-30T02:12:31;11.23;;;10.05;;
69912;SDS011;57198;52.082;5.108;2024-01-30T02:14:58;11.68;;;8.98;;
69912;SDS011;57198;52.082;5.108;2024-01-30T02:17:25;12.77;;;9.20;;
69912;SDS011;57198;52.082;5.108;2024-01-30T02:19:53;11.90;;;8.70;;
69912;SDS011;57198;52.082;5.108;2024-01-30T02:22:21;11.50;;;9.40;;
69912;SDS011;57198;52.082;5.108;2024-01-30T02:24:48;12.77;;;9.30;;
69912;SDS011;57198;52.082;5.108;2024-01-30T02:27:16;11.88;;;9.07;;
69912;SDS011;57198;52.082;5.108;2024-01-30T02:29:44;13.40;;;9.90;;
69912;SDS011;57198;52.082;5.108;2024-01-30T02:32:11;13.60;;;8.95;;
69912;SDS011;57198;52.082;5.108;2024-01-30T02:34:38;14.43;;;9.52;;
69912;SDS011;57198;52.082;5.108;2024-01-30T02:37:06;11.38;;;8.70;;
69912;SDS011;57198;52.082;5.108;2024-01-30T02:39:34;11.52;;;9.52;;
69912;SDS011;57198;52.082;5.108;2024-01-30T02:42:01;12.43;;;9.90;;
69912;SDS011;57198;52.082;5.108;2024-01-30T02:44:28;13.77;;;9.63;;
69912;SDS011;57198;52.082;5.108;2024-01-30T02:46:56;13.60;;;9.55;;
69912;SDS011;57198;52.082;5.108;2024-01-30T02:49:23;11.45;;;8.50;;
69912;SDS011;57198;52.082;5.108;2024-01-30T02:51:51;13.93;;;9.70;;
69912;SDS011;57198;52.082;5.108;2024-01-30T02:54:19;13.07;;;9.35;;
69912;SDS011;57198;52.082;5.108;2024-01-30T02:56:46;11.52;;;9.38;;
69912;SDS011;57198;52.082;5.108;2024-01-30T02:59:14;11.93;;;9.88;;
69912;SDS011;57198;52.082;5.108;2024-01-30T03:01:42;12.95;;;9.80;;
69912;SDS011;57198;52.082;5.108;2024-01-30T03:04:11;12.88;;;9.88;;
69912;SDS011;57198;52.082;5.108;2024-01-30T03:06:44;17.58;;;11.00;;
69912;SDS011;57198;52.082;5.108;2024-01-30T03:09:13;12.60;;;9.60;;
69912;SDS011;57198;52.082;5.108;2024-01-30T03:11:40;11.10;;;9.13;;
69912;SDS011;57198;52.082;5.108;2024-01-30T03:14:07;11.38;;;8.98;;
69912;SDS011;57198;52.082;5.108;2024-01-30T03:16:37;12.82;;;9.63;;
69912;SDS011;57198;52.082;5.108;2024-01-30T03:19:07;11.48;;;9.52;;
69912;SDS011;57198;52.082;5.108;2024-01-30T03:21:35;12.10;;;9.43;;
69912;SDS011;57198;52.082;5.108;2024-01-30T03:24:03;12.55;;;9.25;;
69912;SDS011;57198;52.082;5.108;2024-01-30T03:26:30;11.80;;;9.80;;
69912;SDS011;57198;52.082;5.108;2024-01-30T03:28:58;12.93;;;9.63;;
69912;SDS011;57198;52.082;5.108;2024-01-30T03:31:25;11.07;;;9.27;;
69912;SDS011;57198;52.082;5.108;2024-01-30T03:33:53;12.07;;;10.18;;
69912;SDS011;57198;52.082;5.108;2024-01-30T03:36:20;16.00;;;10.45;;
69912;SDS011;57198;52.082;5.108;2024-01-30T03:38:48;14.15;;;9.43;;
69912;SDS011;57198;52.082;5.108;2024-01-30T03:41:15;14.68;;;10.18;;
69912;SDS011;57198;52.082;5.108;2024-01-30T03:43:43;11.82;;;10.25;;
69912;SDS011;57198;52.082;5.108;2024-01-30T03:46:11;12.30;;;9.52;;
69912;SDS011;57198;52.082;5.108;2024-01-30T03:48:39;14.98;;;10.00;;
69912;SDS011;57198;52.082;5.108;2024-01-30T03:51:06;13.23;;;9.02;;
69912;SDS011;57198;52.082;5.108;2024-01-30T03:53:34;12.13;;;9.75;;
69912;SDS011;57198;52.082;5.108;2024-01-30T03:56:01;10.63;;;9.23;;
69912;SDS011;57198;52.082;5.108;2024-01-30T03:58:29;14.18;;;9.50;;
69912;SDS011;57198;52.082;5.108;2024-01-30T04:00:57;12.32;;;9.30;;
69912;SDS011;57198;52.082;5.108;2024-01-30T04:03:24;12.98;;;10.23;;
69912;SDS011;57198;52.082;5.108;2024-01-30T04:05:52;10.90;;;9.50;;
69912;SDS011;57198;52.082;5.108;2024-01-30T04:08:20;12.07;;;10.00;;
69912;SDS011;57198;52.082;5.108;2024-01-30T04:10:47;14.50;;;9.95;;
69912;SDS011;57198;52.082;5.108;2024-01-30T04:13:14;12.55;;;9.18;;
69912;SDS011;57198;52.082;5.108;2024-01-30T04:15:42;14.57;;;9.77;;
69912;SDS011;57198;52.082;5.108;2024-01-30T04:18:09;13.48;;;9.02;;
69912;SDS011;57198;52.082;5.108;2024-01-30T04:20:37;11.25;;;8.38;;
69912;SDS011;57198;52.082;5.108;2024-01-30T04:23:04;12.95;;;9.35;;
69912;SDS011;57198;52.082;5.108;2024-01-30T04:25:31;11.95;;;9.15;;
69912;SDS011;57198;52.082;5.108;2024-01-30T04:27:59;11.05;;;9.10;;
69912;SDS011;57198;52.082;5.108;2024-01-30T04:30:26;11.20;;;8.50;;
69912;SDS011;57198;52.082;5.108;2024-01-30T04:32:53;13.80;;;8.57;;
69912;SDS011;57198;52.082;5.108;2024-01-30T04:35:21;10.27;;;7.97;;
69912;SDS011;57198;52.082;5.108;2024-01-30T04:37:52;11.77;;;8.48;;
69912;SDS011;57198;52.082;5.108;2024-01-30T04:40:22;16.77;;;9.13;;
69912;SDS011;57198;52.082;5.108;2024-01-30T04:42:50;12.73;;;8.98;;
69912;SDS011;57198;52.082;5.108;2024-01-30T04:45:17;8.93;;;7.85;;
69912;SDS011;57198;52.082;5.108;2024-01-30T04:47:45;16.90;;;9.45;;
69912;SDS011;57198;52.082;5.108;2024-01-30T04:50:13;13.23;;;9.35;;
69912;SDS011;57198;52.082;5.108;2024-01-30T04:52:40;12.75;;;9.15;;
69912;SDS011;57198;52.082;5.108;2024-01-30T04:55:08;13.20;;;7.38;;
69912;SDS011;57198;52.082;5.108;2024-01-30T04:57:35;12.00;;;8.50;;
69912;SDS011;57198;52.082;5.108;2024-01-30T05:00:03;13.23;;;8.70;;
69912;SDS011;57198;52.082;5.108;2024-01-30T05:02:31;14.50;;;8.82;;
69912;SDS011;57198;52.082;5.108;2024-01-30T05:04:59;12.90;;;8.27;;
69912;SDS011;57198;52.082;5.108;2024-01-30T05:07:26;10.45;;;7.93;;
69912;SDS011;57198;52.082;5.108;2024-01-30T05:09:54;11.95;;;8.27;;
69912;SDS011;57198;52.082;5.108;2024-01-30T05:12:25;9.98;;;7.32;;
69912;SDS011;57198;52.082;5.108;2024-01-30T05:14:52;11.65;;;8.90;;
69912;SDS011;57198;52.082;5.108;2024-01-30T05:17:19;11.25;;;9.23;;
69912;SDS011;57198;52.082;5.108;2024-01-30T05:19:47;11.77;;;9.10;;
69912;SDS011;57198;52.082;5.108;2024-01-30T05:22:15;8.93;;;7.32;;
69912;SDS011;57198;52.082;5.108;2024-01-30T05:24:44;12.18;;;8.77;;
69912;SDS011;57198;52.082;5.108;2024-01-30T05:27:12;11.48;;;7.70;;
69912;SDS011;57198;52.082;5.108;2024-01-30T05:29:40;13.55;;;8.50;;
69912;SDS011;57198;52.082;5.108;2024-01-30T05:32:08;8.88;;;7.43;;
69912;SDS011;57198;52.082;5.108;2024-01-30T05:34:35;11.73;;;7.90;;
69912;SDS011;57198;52.082;5.108;2024-01-30T05:37:03;14.82;;;8.80;;
69912;SDS011;57198;52.082;5.108;2024-01-30T05:39:31;9.80;;;8.05;;
69912;SDS011;57198;52.082;5.108;2024-01-30T05:41:59;9.93;;;7.85;;
69912;SDS011;57198;52.082;5.108;2024-01-30T05:44:26;13.65;;;7.53;;
69912;SDS011;57198;52.082;5.108;2024-01-30T05:46:54;12.05;;;7.43;;
69912;SDS011;57198;52.082;5.108;2024-01-30T05:49:21;9.40;;;7.63;;
69912;SDS011;57198;52.082;5.108;2024-01-30T05:51:49;12.23;;;7.82;;
69912;SDS011;57198;52.082;5.108;2024-01-30T05:54:16;11.60;;;8.20;;
69912;SDS011;57198;52.082;5.108;2024-01-30T05:56:43;10.25;;;7.55;;
69912;SDS011;57198;52.082;5.108;2024-01-30T05:59:11;11.40;;;7.18;;
69912;SDS011;57198;52.082;5.108;2024-01-30T06:01:44;9.52;;;7.50;;
69912;SDS011;57198;52.082;5.108;2024-01-30T06:04:12;11.65;;;7.00;;
69912;SDS011;57198;52.082;5.108;2024-01-30T06:06:40;13.25;;;8.13;;
69912;SDS011;57198;52.082;5.108;2024-01-30T06:09:07;10.95;;;8.23;;
69912;SDS011;57198;52.082;5.108;2024-01-30T06:11:35;10.82;;;8.32;;
69912;SDS011;57198;52.082;5.108;2024-01-30T06:14:02;13.05;;;8.32;;
69912;SDS011;57198;52.082;5.108;2024-01-30T06:16:30;10.68;;;7.20;;
69912;SDS011;57198;52.082;5.108;2024-01-30T06:18:57;12.43;;;8.38;;
69912;SDS011;57198;52.082;5.108;2024-01-30T06:21:25;10.57;;;7.10;;
69912;SDS011;57198;52.082;5.108;2024-01-30T06:23:53;12.45;;;7.20;;
69912;SDS011;57198;52.082;5.108;2024-01-30T06:26:20;9.68;;;8.48;;
69912;SDS011;57198;52.082;5.108;2024-01-30T06:28:48;10.23;;;8.27;;
69912;SDS011;57198;52.082;5.108;2024-01-30T06:31:15;9.20;;;6.90;;
69912;SDS011;57198;52.082;5.108;2024-01-30T06:33:43;11.30;;;7.97;;
69912;SDS011;57198;52.082;5.108;2024-01-30T06:36:10;11.07;;;8.13;;
69912;SDS011;57198;52.082;5.108;2024-01-30T06:38:38;13.02;;;7.95;;
69912;SDS011;57198;52.082;5.108;2024-01-30T06:41:05;10.40;;;7.25;;
69912;SDS011;57198;52.082;5.108;2024-01-30T06:43:32;12.15;;;7.78;;
69912;SDS011;57198;52.082;5.108;2024-01-30T06:46:00;13.45;;;7.70;;
69912;SDS011;57198;52.082;5.108;2024-01-30T06:48:27;10.55;;;7.63;;
69912;SDS011;57198;52.082;5.108;2024-01-30T06:50:55;11.77;;;8.27;;
69912;SDS011;57198;52.082;5.108;2024-01-30T06:53:24;10.05;;;7.90;;
69912;SDS011;57198;52.082;5.108;2024-01-30T06:55:52;10.45;;;6.30;;
69912;SDS011;57198;52.082;5.108;2024-01-30T06:58:20;9.50;;;7.25;;
69912;SDS011;57198;52.082;5.108;2024-01-30T07:00:47;10.32;;;7.88;;
69912;SDS011;57198;52.082;5.108;2024-01-30T07:03:15;11.82;;;8.50;;
69912;SDS011;57198;52.082;5.108;2024-01-30T07:05:42;8.95;;;6.47;;
69912;SDS011;57198;52.082;5.108;2024-01-30T07:08:09;9.10;;;7.93;;
69912;SDS011;57198;52.082;5.108;2024-01-30T07:10:37;10.35;;;7.97;;
69912;SDS011;57198;52.082;5.108;2024-01-30T07:13:04;12.15;;;7.30;;
69912;SDS011;57198;52.082;5.108;2024-01-30T07:15:32;9.48;;;7.18;;
69912;SDS011;57198;52.082;5.108;2024-01-30T07:18:00;9.93;;;7.57;;
69912;SDS011;57198;52.082;5.108;2024-01-30T07:20:27;9.13;;;6.40;;
69912;SDS011;57198;52.082;5.108;2024-01-30T07:23:00;16.55;;;8.02;;
69912;SDS011;57198;52.082;5.108;2024-01-30T07:25:27;10.07;;;7.35;;
69912;SDS011;57198;52.082;5.108;2024-01-30T07:27:56;11.15;;;8.02;;
69912;SDS011;57198;52.082;5.108;2024-01-30T07:30:24;13.35;;;7.65;;
69912;SDS011;57198;52.082;5.108;2024-01-30T07:32:51;12.48;;;7.80;;
69912;SDS011;57198;52.082;5.108;2024-01-30T07:35:19;15.52;;;8.10;;
69912;SDS011;57198;52.082;5.108;2024-01-30T07:37:46;10.02;;;7.38;;
69912;SDS011;57198;52.082;5.108;2024-01-30T07:40:14;11.98;;;6.68;;
69912;SDS011;57198;52.082;5.108;2024-01-30T07:42:41;12.57;;;7.20;;
69912;SDS011;57198;52.082;5.108;2024-01-30T07:45:09;11.98;;;7.47;;
69912;SDS011;57198;52.082;5.108;2024-01-30T07:47:36;13.05;;;6.90;;
69912;SDS011;57198;52.082;5.108;2024-01-30T07:50:04;9.38;;;7.88;;
69912;SDS011;57198;52.082;5.108;2024-01-30T07:52:31;10.85;;;6.57;;
69912;SDS011;57198;52.082;5.108;2024-01-30T07:54:59;10.65;;;7.50;;
69912;SDS011;57198;52.082;5.108;2024-01-30T07:57:26;10.77;;;7.85;;
69912;SDS011;57198;52.082;5.108;2024-01-30T07:59:54;11.93;;;7.30;;
69912;SDS011;57198;52.082;5.108;2024-01-30T08:02:21;12.10;;;8.20;;
69912;SDS011;57198;52.082;5.108;2024-01-30T08:04:48;13.52;;;7.35;;
69912;SDS011;57198;52.082;5.108;2024-01-30T08:07:16;13.20;;;7.93;;
69912;SDS011;57198;52.082;5.108;2024-01-30T08:09:44;11.60;;;7.40;;
69912;SDS011;57198;52.082;5.108;2024-01-30T08:12:11;9.25;;;5.47;;
69912;SDS011;57198;52.082;5.108;2024-01-30T08:14:40;9.55;;;6.07;;
69912;SDS011;57198;52.082;5.108;2024-01-30T08:17:07;11.75;;;7.22;;
69912;SDS011;57198;52.082;5.108;2024-01-30T08:19:35;10.27;;;7.65;;
69912;SDS011;57198;52.082;5.108;2024-01-30T08:22:02;13.35;;;8.45;;
69912;SDS011;57198;52.082;5.108;2024-01-30T08:24:30;15.15;;;7.97;;
69912;SDS011;57198;52.082;5.108;2024-01-30T08:26:57;18.52;;;7.82;;
69912;SDS011;57198;52.082;5.108;2024-01-30T08:29:25;12.07;;;7.03;;
69912;SDS011;57198;52.082;5.108;2024-01-30T08:31:53;11.82;;;7.57;;
69912;SDS011;57198;52.082;5.108;2024-01-30T08:34:22;14.30;;;7.55;;
69912;SDS011;57198;52.082;5.108;2024-01-30T08:36:49;13.38;;;8.75;;
69912;SDS011;57198;52.082;5.108;2024-01-30T08:39:17;14.82;;;8.30;;
69912;SDS011;57198;52.082;5.108;2024-01-30T08:41:44;12.63;;;7.80;;
69912;SDS011;57198;52.082;5.108;2024-01-30T08:44:12;10.32;;;7.50;;
69912;SDS011;57198;52.082;5.108;2024-01-30T08:46:39;13.20;;;7.70;;
69912;SDS011;57198;52.082;5.108;2024-01-30T08:49:07;13.57;;;8.30;;
69912;SDS011;57198;52.082;5.108;2024-01-30T08:51:34;11.18;;;6.93;;
69912;SDS011;57198;52.082;5.108;2024-01-30T08:54:02;13.20;;;7.43;;
69912;SDS011;57198;52.082;5.108;2024-01-30T08:56:29;11.50;;;7.20;;
69912;SDS011;57198;52.082;5.108;2024-01-30T08:58:57;13.32;;;9.52;;
69912;SDS011;57198;52.082;5.108;2024-01-30T09:01:24;11.88;;;9.02;;
69912;SDS011;57198;52.082;5.108;2024-01-30T09:03:53;13.57;;;8.40;;
69912;SDS011;57198;52.082;5.108;2024-01-30T09:06:20;12.70;;;8.02;;
69912;SDS011;57198;52.082;5.108;2024-01-30T09:08:47;11.25;;;7.30;;
69912;SDS011;57198;52.082;5.108;2024-01-30T09:11:15;11.27;;;7.50;;
69912;SDS011;57198;52.082;5.108;2024-01-30T09:13:43;12.88;;;7.47;;
69912;SDS011;57198;52.082;5.108;2024-01-30T09:16:10;10.63;;;8.35;;
69912;SDS011;57198;52.082;5.108;2024-01-30T09:18:37;14.95;;;7.90;;
69912;SDS011;57198;52.082;5.108;2024-01-30T09:21:05;11.55;;;6.75;;
69912;SDS011;57198;52.082;5.108;2024-01-30T09:23:32;9.70;;;6.50;;
69912;SDS011;57198;52.082;5.108;2024-01-30T09:26:00;11.15;;;6.93;;
69912;SDS011;57198;52.082;5.108;2024-01-30T09:28:27;11.93;;;8.25;;
69912;SDS011;57198;52.082;5.108;2024-01-30T09:30:55;9.23;;;7.50;;
69912;SDS011;57198;52.082;5.108;2024-01-30T09:33:22;15.77;;;7.38;;
69912;SDS011;57198;52.082;5.108;2024-01-30T09:35:49;15.10;;;7.88;;
69912;SDS011;57198;52.082;5.108;2024-01-30T09:38:17;12.70;;;7.07;;
69912;SDS011;57198;52.082;5.108;2024-01-30T09:40:44;10.65;;;7.32;;
69912;SDS011;57198;52.082;5.108;2024-01-30T09:43:17;12.20;;;7.47;;
69912;SDS011;57198;52.082;5.108;2024-01-30T09:45:52;13.50;;;6.65;;
69912;SDS011;57198;52.082;5.108;2024-01-30T09:48:20;15.35;;;6.85;;
69912;SDS011;57198;52.082;5.108;2024-01-30T09:50:48;10.57;;;6.30;;
69912;SDS011;57198;52.082;5.108;2024-01-30T09:53:17;13.57;;;7.57;;
69912;SDS011;57198;52.082;5.108;2024-01-30T09:55:44;10.75;;;7.93;;
69912;SDS011;57198;52.082;5.108;2024-01-30T09:58:12;11.85;;;6.88;;
69912;SDS011;57198;52.082;5.108;2024-01-30T10:00:40;12.82;;;7.20;;
69912;SDS011;57198;52.082;5.108;2024-01-30T10:03:08;12.23;;;6.88;;
69912;SDS011;57198;52.082;5.108;2024-01-30T10:05:35;9.25;;;7.03;;
69912;SDS011;57198;52.082;5.108;2024-01-30T10:08:06;9.55;;;6.68;;
69912;SDS011;57198;52.082;5.108;2024-01-30T10:10:37;10.45;;;7.18;;
69912;SDS011;57198;52.082;5.108;2024-01-30T10:13:05;10.82;;;6.97;;
69912;SDS011;57198;52.082;5.108;2024-01-30T10:15:32;11.57;;;6.75;;
69912;SDS011;57198;52.082;5.108;2024-01-30T10:18:02;11.15;;;7.78;;
69912;SDS011;57198;52.082;5.108;2024-01-30T10:20:29;12.25;;;7.13;;
69912;SDS011;57198;52.082;5.108;2024-01-30T10:22:57;11.70;;;7.00;;
69912;SDS011;57198;52.082;5.108;2024-01-30T10:25:25;9.65;;;7.15;;
69912;SDS011;57198;52.082;5.108;2024-01-30T10:27:55;9.27;;;6.25;;
69912;SDS011;57198;52.082;5.108;2024-01-30T10:30:22;16.80;;;6.57;;
69912;SDS011;57198;52.082;5.108;2024-01-30T10:32:50;12.13;;;7.20;;
69912;SDS011;57198;52.082;5.108;2024-01-30T10:35:18;11.68;;;6.60;;
69912;SDS011;57198;52.082;5.108;2024-01-30T10:37:46;12.73;;;7.03;;
69912;SDS011;57198;52.082;5.108;2024-01-30T10:40:14;9.15;;;7.35;;
69912;SDS011;57198;52.082;5.108;2024-01-30T10:42:43;12.55;;;6.78;;
69912;SDS011;57198;52.082;5.108;2024-01-30T10:45:11;12.25;;;6.60;;
69912;SDS011;57198;52.082;5.108;2024-01-30T10:47:40;8.43;;;5.95;;
69912;SDS011;57198;52.082;5.108;2024-01-30T10:50:08;9.95;;;5.95;;
69912;SDS011;57198;52.082;5.108;2024-01-30T10:52:37;10.55;;;5.70;;
69912;SDS011;57198;52.082;5.108;2024-01-30T10:55:04;8.60;;;5.40;;
69912;SDS011;57198;52.082;5.108;2024-01-30T10:57:33;8.15;;;5.00;;
69912;SDS011;57198;52.082;5.108;2024-01-30T11:00:03;6.35;;;4.57;;
69912;SDS011;57198;52.082;5.108;2024-01-30T11:02:32;8.63;;;4.07;;
69912;SDS011;57198;52.082;5.108;2024-01-30T11:05:00;7.82;;;4.30;;
69912;SDS011;57198;52.082;5.108;2024-01-30T11:07:28;5.03;;;3.67;;
69912;SDS011;57198;52.082;5.108;2024-01-30T11:10:00;8.13;;;3.83;;
69912;SDS011;57198;52.082;5.108;2024-01-30T11:12:27;7.35;;;4.15;;
69912;SDS011;57198;52.082;5.108;2024-01-30T11:20:15;5.13;;;2.90;;
69912;SDS011;57198;52.082;5.108;2024-01-30T11:22:45;6.38;;;2.42;;
69912;SDS011;57198;52.082;5.108;2024-01-30T11:25:16;4.00;;;2.22;;
69912;SDS011;57198;52.082;5.108;2024-01-30T11:27:45;8.48;;;2.85;;
69912;SDS011;57198;52.082;5.108;2024-01-30T11:33:03;3.03;;;2.30;;
69912;SDS011;57198;52.082;5.108;2024-01-30T11:35:32;5.93;;;2.35;;
69912;SDS011;57198;52.082;5.108;2024-01-30T11:38:00;8.30;;;2.85;;
69912;SDS011;57198;52.082;5.108;2024-01-30T11:40:28;4.75;;;2.90;;
69912;SDS011;57198;52.082;5.108;2024-01-30T11:42:56;2.65;;;2.47;;
69912;SDS011;57198;52.082;5.108;2024-01-30T11:45:25;3.13;;;2.78;;
69912;SDS011;57198;52.082;5.108;2024-01-30T11:47:53;5.00;;;2.42;;
69912;SDS011;57198;52.082;5.108;2024-01-30T11:50:21;5.25;;;2.85;;
69912;SDS011;57198;52.082;5.108;2024-01-30T11:52:48;4.70;;;3.13;;
69912;SDS011;57198;52.082;5.108;2024-01-30T11:55:16;6.38;;;2.80;;
69912;SDS011;57198;52.082;5.108;2024-01-30T11:57:43;6.45;;;3.20;;
69912;SDS011;57198;52.082;5.108;2024-01-30T12:00:14;4.80;;;3.05;;
69912;SDS011;57198;52.082;5.108;2024-01-30T12:02:42;5.88;;;2.58;;
69912;SDS011;57198;52.082;5.108;2024-01-30T12:05:10;2.60;;;2.40;;
69912;SDS011;57198;52.082;5.108;2024-01-30T12:07:37;7.05;;;2.22;;
69912;SDS011;57198;52.082;5.108;2024-01-30T12:10:05;9.77;;;2.58;;
69912;SDS011;57198;52.082;5.108;2024-01-30T12:12:34;3.05;;;1.50;;
69912;SDS011;57198;52.082;5.108;2024-01-30T12:15:01;7.88;;;2.47;;
69912;SDS011;57198;52.082;5.108;2024-01-30T12:17:30;5.85;;;2.55;;
69912;SDS011;57198;52.082;5.108;2024-01-30T12:20:10;4.22;;;2.40;;
69912;SDS011;57198;52.082;5.108;2024-01-30T12:22:40;5.82;;;2.13;;
69912;SDS011;57198;52.082;5.108;2024-01-30T12:25:08;5.13;;;1.73;;
69912;SDS011;57198;52.082;5.108;2024-01-30T12:27:36;6.95;;;2.67;;
69912;SDS011;57198;52.082;5.108;2024-01-30T12:30:10;7.28;;;3.00;;
69912;SDS011;57198;52.082;5.108;2024-01-30T12:32:39;4.15;;;2.63;;
69912;SDS011;57198;52.082;5.108;2024-01-30T12:35:07;4.97;;;2.28;;
69912;SDS011;57198;52.082;5.108;2024-01-30T12:37:35;5.80;;;2.55;;
69912;SDS011;57198;52.082;5.108;2024-01-30T12:40:03;5.15;;;2.28;;
69912;SDS011;57198;52.082;5.108;2024-01-30T12:42:30;3.63;;;2.50;;
69912;SDS011;57198;52.082;5.108;2024-01-30T12:44:58;3.17;;;2.65;;
69912;SDS011;57198;52.082;5.108;2024-01-30T12:47:26;3.67;;;2.58;;
69912;SDS011;57198;52.082;5.108;2024-01-30T12:49:53;2.00;;;1.90;;
69912;SDS011;57198;52.082;5.108;2024-01-30T12:52:21;2.22;;;1.98;;
69912;SDS011;57198;52.082;5.108;2024-01-30T12:54:49;4.30;;;1.85;;
69912;SDS011;57198;52.082;5.108;2024-01-30T12:57:17;5.65;;;1.67;;
69912;SDS011;57198;52.082;5.108;2024-01-30T12:59:45;3.00;;;1.13;;
69912;SDS011;57198;52.082;5.108;2024-01-30T13:02:12;3.90;;;2.00;;
69912;SDS011;57198;52.082;5.108;2024-01-30T13:04:40;2.65;;;2.00;;
69912;SDS011;57198;52.082;5.108;2024-01-30T13:07:08;2.15;;;1.55;;
69912;SDS011;57198;52.082;5.108;2024-01-30T13:09:35;1.65;;;1.35;;
69912;SDS011;57198;52.082;5.108;2024-01-30T13:12:04;4.43;;;1.60;;
69912;SDS011;57198;52.082;5.108;2024-01-30T13:14:31;4.35;;;1.75;;
69912;SDS011;57198;52.082;5.108;2024-01-30T13:16:59;3.17;;;1.48;;
69912;SDS011;57198;52.082;5.108;2024-01-30T13:19:26;10.30;;;1.90;;
69912;SDS011;57198;52.082;5.108;2024-01-30T13:21:54;3.00;;;1.80;;
69912;SDS011;57198;52.082;5.108;2024-01-30T13:24:21;6.50;;;2.42;;
69912;SDS011;57198;52.082;5.108;2024-01-30T13:26:49;1.75;;;1.25;;
69912;SDS011;57198;52.082;5.108;2024-01-30T13:29:16;4.95;;;1.45;;
69912;SDS011;57198;52.082;5.108;2024-01-30T13:31:43;2.65;;;2.03;;
69912;SDS011;57198;52.082;5.108;2024-01-30T13:34:12;1.90;;;1.52;;
69912;SDS011;57198;52.082;5.108;2024-01-30T13:36:43;4.57;;;2.17;;
69912;SDS011;57198;52.082;5.108;2024-01-30T13:39:11;3.88;;;1.08;;
69912;SDS011;57198;52.082;5.108;2024-01-30T13:41:39;3.28;;;1.30;;
69912;SDS011;57198;52.082;5.108;2024-01-30T13:44:06;2.75;;;1.58;;
69912;SDS011;57198;52.082;5.108;2024-01-30T13:46:35;2.30;;;1.67;;
69912;SDS011;57198;52.082;5.108;2024-01-30T13:49:02;6.25;;;1.73;;
69912;SDS011;57198;52.082;5.108;2024-01-30T13:51:30;5.13;;;1.70;;
69912;SDS011;57198;52.082;5.108;2024-01-30T13:53:57;2.00;;;1.60;;
69912;SDS011;57198;52.082;5.108;2024-01-30T13:56:25;2.38;;;1.60;;
69912;SDS011;57198;52.082;5.108;2024-01-30T13:58:53;5.28;;;2.03;;
69912;SDS011;57198;52.082;5.108;2024-01-30T14:01:22;4.00;;;1.98;;
69912;SDS011;57198;52.082;5.108;2024-01-30T14:03:50;5.55;;;2.00;;
69912;SDS011;57198;52.082;5.108;2024-01-30T14:06:18;5.35;;;2.08;;
69912;SDS011;57198;52.082;5.108;2024-01-30T14:08:46;4.10;;;2.55;;
69912;SDS011;57198;52.082;5.108;2024-01-30T14:11:22;5.18;;;2.22;;
69912;SDS011;57198;52.082;5.108;2024-01-30T14:13:50;3.17;;;1.90;;
69912;SDS011;57198;52.082;5.108;2024-01-30T14:16:17;6.45;;;5.78;;
69912;SDS011;57198;52.082;5.108;2024-01-30T14:18:45;3.70;;;2.10;;
69912;SDS011;57198;52.082;5.108;2024-01-30T14:21:12;4.60;;;3.53;;
69912;SDS011;57198;52.082;5.108;2024-01-30T14:23:39;6.93;;;4.60;;
69912;SDS011;57198;52.082;5.108;2024-01-30T14:26:07;3.33;;;2.13;;
69912;SDS011;57198;52.082;5.108;2024-01-30T14:28:34;6.93;;;2.85;;
69912;SDS011;57198;52.082;5.108;2024-01-30T14:31:02;4.05;;;2.65;;
69912;SDS011;57198;52.082;5.108;2024-01-30T14:33:29;3.10;;;1.80;;
69912;SDS011;57198;52.082;5.108;2024-01-30T14:35:57;3.33;;;2.38;;
69912;SDS011;57198;52.082;5.108;2024-01-30T14:38:24;6.80;;;2.67;;
69912;SDS011;57198;52.082;5.108;2024-01-30T14:40:52;4.07;;;3.17;;
69912;SDS011;57198;52.082;5.108;2024-01-30T14:43:19;5.78;;;3.25;;
69912;SDS011;57198;52.082;5.108;2024-01-30T14:45:46;4.28;;;3.03;;
69912;SDS011;57198;52.082;5.108;2024-01-30T14:48:15;3.13;;;2.92;;
69912;SDS011;57198;52.082;5.108;2024-01-30T14:50:43;5.68;;;2.60;;